sensor_id;sensor_type;location;lat;lon;timestamp;P1;durP1;ratioP1;P2;durP2;ratioP2
11319;SDS011;5715;48.234;14.320;2023-04-01T00:01:48;2.33;;;1.90;;
11319;SDS011;5715;48.234;14.320;2023-04-01T00:04:36;1.90;;;1.80;;
11319;SDS011;5715;48.234;14.320;2023-04-01T00:07:23;2.13;;;1.90;;
11319;SDS011;5715;48.234;14.320;2023-04-01T00:10:16;2.40;;;2.00;;
11319;SDS011;5715;48.234;14.320;2023-04-01T00:13:04;2.00;;;1.90;;
11319;SDS011;5715;48.234;14.320;2023-04-01T00:15:54;1.90;;;1.80;;
11319;SDS011;5715;48.234;14.320;2023-04-01T00:18:46;2.27;;;2.07;;
11319;SDS011;5715;48.234;14.320;2023-04-01T00:21:35;1.80;;;1.70;;
11319;SDS011;5715;48.234;14.320;2023-04-01T00:24:23;1.70;;;1.60;;
11319;SDS011;5715;48.234;14.320;2023-04-01T00:27:11;1.80;;;1.70;;
11319;SDS011;5715;48.234;14.320;2023-04-01T00:29:58;6.03;;;2.50;;
11319;SDS011;5715;48.234;14.320;2023-04-01T00:32:46;1.80;;;1.70;;
11319;SDS011;5715;48.234;14.320;2023-04-01T00:35:33;9.30;;;1.43;;
11319;SDS011;5715;48.234;14.320;2023-04-01T00:38:22;1.60;;;1.50;;
11319;SDS011;5715;48.234;14.320;2023-04-01T00:41:10;1.60;;;1.50;;
11319;SDS011;5715;48.234;14.320;2023-04-01T00:44:16;1.73;;;1.63;;
11319;SDS011;5715;48.234;14.320;2023-04-01T00:47:07;1.60;;;1.50;;
11319;SDS011;5715;48.234;14.320;2023-04-01T00:49:55;1.70;;;1.60;;
11319;SDS011;5715;48.234;14.320;2023-04-01T00:52:43;1.50;;;1.40;;
11319;SDS011;5715;48.234;14.320;2023-04-01T00:55:32;1.60;;;1.50;;
11319;SDS011;5715;48.234;14.320;2023-04-01T00:58:24;1.70;;;1.60;;
11319;SDS011;5715;48.234;14.320;2023-04-01T01:01:18;2.10;;;2.00;;
11319;SDS011;5715;48.234;14.320;2023-04-01T01:10:48;1.73;;;1.63;;
11319;SDS011;5715;48.234;14.320;2023-04-01T01:13:43;2.40;;;1.97;;
11319;SDS011;5715;48.234;14.320;2023-04-01T01:16:56;1.97;;;1.87;;
11319;SDS011;5715;48.234;14.320;2023-04-01T01:27:07;2.13;;;1.50;;
11319;SDS011;5715;48.234;14.320;2023-04-01T01:30:20;5.13;;;1.40;;
11319;SDS011;5715;48.234;14.320;2023-04-01T01:36:36;1.30;;;1.30;;
11319;SDS011;5715;48.234;14.320;2023-04-01T01:39:31;2.37;;;1.90;;
11319;SDS011;5715;48.234;14.320;2023-04-01T01:42:23;6.60;;;1.30;;
11319;SDS011;5715;48.234;14.320;2023-04-01T01:45:16;1.20;;;1.20;;
11319;SDS011;5715;48.234;14.320;2023-04-01T01:48:08;3.77;;;1.90;;
11319;SDS011;5715;48.234;14.320;2023-04-01T01:50:58;2.23;;;1.53;;
11319;SDS011;5715;48.234;14.320;2023-04-01T01:53:47;1.50;;;1.40;;
11319;SDS011;5715;48.234;14.320;2023-04-01T01:56:34;1.40;;;1.40;;
11319;SDS011;5715;48.234;14.320;2023-04-01T01:59:22;3.17;;;1.60;;
11319;SDS011;5715;48.234;14.320;2023-04-01T02:02:14;1.23;;;1.23;;
11319;SDS011;5715;48.234;14.320;2023-04-01T02:05:04;1.90;;;1.80;;
11319;SDS011;5715;48.234;14.320;2023-04-01T02:08:03;7.43;;;2.17;;
11319;SDS011;5715;48.234;14.320;2023-04-01T02:11:00;1.90;;;1.80;;
11319;SDS011;5715;48.234;14.320;2023-04-01T02:14:05;2.20;;;2.10;;
11319;SDS011;5715;48.234;14.320;2023-04-01T02:17:17;3.63;;;2.53;;
11319;SDS011;5715;48.234;14.320;2023-04-01T02:20:09;1.30;;;1.30;;
11319;SDS011;5715;48.234;14.320;2023-04-01T02:23:03;3.50;;;2.10;;
11319;SDS011;5715;48.234;14.320;2023-04-01T02:25:54;2.90;;;2.63;;
11319;SDS011;5715;48.234;14.320;2023-04-01T02:28:42;2.27;;;2.17;;
11319;SDS011;5715;48.234;14.320;2023-04-01T02:31:33;2.10;;;2.00;;
11319;SDS011;5715;48.234;14.320;2023-04-01T02:34:22;3.03;;;2.03;;
11319;SDS011;5715;48.234;14.320;2023-04-01T02:37:12;2.10;;;2.00;;
11319;SDS011;5715;48.234;14.320;2023-04-01T02:40:02;2.40;;;2.30;;
11319;SDS011;5715;48.234;14.320;2023-04-01T02:42:55;2.10;;;2.00;;
11319;SDS011;5715;48.234;14.320;2023-04-01T02:45:42;2.20;;;2.10;;
11319;SDS011;5715;48.234;14.320;2023-04-01T02:48:30;2.80;;;2.20;;
11319;SDS011;5715;48.234;14.320;2023-04-01T02:51:17;2.10;;;2.00;;
11319;SDS011;5715;48.234;14.320;2023-04-01T02:54:05;2.50;;;2.40;;
11319;SDS011;5715;48.234;14.320;2023-04-01T02:56:53;2.30;;;2.20;;
11319;SDS011;5715;48.234;14.320;2023-04-01T02:59:40;2.23;;;2.13;;
11319;SDS011;5715;48.234;14.320;2023-04-01T03:02:28;1.93;;;1.83;;
11319;SDS011;5715;48.234;14.320;2023-04-01T03:05:16;1.87;;;1.77;;
11319;SDS011;5715;48.234;14.320;2023-04-01T03:08:03;2.00;;;1.90;;
11319;SDS011;5715;48.234;14.320;2023-04-01T03:10:51;1.80;;;1.70;;
11319;SDS011;5715;48.234;14.320;2023-04-01T03:13:39;2.23;;;2.13;;
11319;SDS011;5715;48.234;14.320;2023-04-01T03:16:27;2.00;;;1.90;;
11319;SDS011;5715;48.234;14.320;2023-04-01T03:19:14;3.87;;;1.93;;
11319;SDS011;5715;48.234;14.320;2023-04-01T03:22:02;2.77;;;2.53;;
11319;SDS011;5715;48.234;14.320;2023-04-01T03:24:49;1.93;;;1.83;;
11319;SDS011;5715;48.234;14.320;2023-04-01T03:27:37;1.80;;;1.70;;
11319;SDS011;5715;48.234;14.320;2023-04-01T03:30:25;1.90;;;1.80;;
11319;SDS011;5715;48.234;14.320;2023-04-01T03:33:13;2.10;;;2.00;;
11319;SDS011;5715;48.234;14.320;2023-04-01T03:36:01;2.00;;;1.90;;
11319;SDS011;5715;48.234;14.320;2023-04-01T03:38:53;2.20;;;2.00;;
11319;SDS011;5715;48.234;14.320;2023-04-01T03:41:40;2.70;;;1.90;;
11319;SDS011;5715;48.234;14.320;2023-04-01T03:44:31;3.20;;;2.30;;
11319;SDS011;5715;48.234;14.320;2023-04-01T03:47:20;2.07;;;1.97;;
11319;SDS011;5715;48.234;14.320;2023-04-01T03:50:08;1.90;;;1.80;;
11319;SDS011;5715;48.234;14.320;2023-04-01T03:52:56;2.30;;;2.20;;
11319;SDS011;5715;48.234;14.320;2023-04-01T03:55:44;2.40;;;2.20;;
11319;SDS011;5715;48.234;14.320;2023-04-01T03:58:31;1.80;;;1.70;;
11319;SDS011;5715;48.234;14.320;2023-04-01T04:01:20;2.30;;;2.20;;
11319;SDS011;5715;48.234;14.320;2023-04-01T04:04:12;2.30;;;2.20;;
11319;SDS011;5715;48.234;14.320;2023-04-01T04:06:59;2.20;;;2.00;;
11319;SDS011;5715;48.234;14.320;2023-04-01T04:09:47;2.27;;;2.17;;
11319;SDS011;5715;48.234;14.320;2023-04-01T04:12:35;2.67;;;2.57;;
11319;SDS011;5715;48.234;14.320;2023-04-01T04:15:22;2.27;;;2.17;;
11319;SDS011;5715;48.234;14.320;2023-04-01T04:18:10;2.37;;;2.27;;
11319;SDS011;5715;48.234;14.320;2023-04-01T04:20:57;1.90;;;1.80;;
11319;SDS011;5715;48.234;14.320;2023-04-01T04:23:45;1.83;;;1.73;;
11319;SDS011;5715;48.234;14.320;2023-04-01T04:26:32;2.10;;;2.00;;
11319;SDS011;5715;48.234;14.320;2023-04-01T04:29:20;2.10;;;2.00;;
11319;SDS011;5715;48.234;14.320;2023-04-01T04:32:09;1.43;;;1.43;;
11319;SDS011;5715;48.234;14.320;2023-04-01T04:34:56;13.00;;;2.60;;
11319;SDS011;5715;48.234;14.320;2023-04-01T04:37:44;1.57;;;1.53;;
11319;SDS011;5715;48.234;14.320;2023-04-01T04:40:32;1.57;;;1.57;;
11319;SDS011;5715;48.234;14.320;2023-04-01T04:43:19;1.40;;;1.40;;
11319;SDS011;5715;48.234;14.320;2023-04-01T04:46:10;1.80;;;1.70;;
11319;SDS011;5715;48.234;14.320;2023-04-01T04:48:58;1.30;;;1.30;;
11319;SDS011;5715;48.234;14.320;2023-04-01T04:51:46;1.60;;;1.50;;
11319;SDS011;5715;48.234;14.320;2023-04-01T04:54:33;1.47;;;1.47;;
11319;SDS011;5715;48.234;14.320;2023-04-01T04:57:21;1.80;;;1.70;;
11319;SDS011;5715;48.234;14.320;2023-04-01T05:00:09;1.80;;;1.70;;
11319;SDS011;5715;48.234;14.320;2023-04-01T05:02:58;1.97;;;1.87;;
11319;SDS011;5715;48.234;14.320;2023-04-01T05:05:49;1.83;;;1.73;;
11319;SDS011;5715;48.234;14.320;2023-04-01T05:08:39;1.70;;;1.60;;
11319;SDS011;5715;48.234;14.320;2023-04-01T05:11:28;2.10;;;2.00;;
11319;SDS011;5715;48.234;14.320;2023-04-01T05:14:16;2.00;;;1.90;;
11319;SDS011;5715;48.234;14.320;2023-04-01T05:17:05;2.00;;;1.90;;
11319;SDS011;5715;48.234;14.320;2023-04-01T05:19:57;1.87;;;1.77;;
11319;SDS011;5715;48.234;14.320;2023-04-01T05:22:45;2.30;;;1.70;;
11319;SDS011;5715;48.234;14.320;2023-04-01T05:25:32;1.70;;;1.60;;
11319;SDS011;5715;48.234;14.320;2023-04-01T05:28:20;2.10;;;2.00;;
11319;SDS011;5715;48.234;14.320;2023-04-01T05:31:08;1.50;;;1.40;;
11319;SDS011;5715;48.234;14.320;2023-04-01T05:33:56;1.20;;;1.20;;
11319;SDS011;5715;48.234;14.320;2023-04-01T05:36:43;1.30;;;1.30;;
11319;SDS011;5715;48.234;14.320;2023-04-01T05:39:31;1.10;;;1.10;;
11319;SDS011;5715;48.234;14.320;2023-04-01T05:42:24;1.30;;;1.20;;
11319;SDS011;5715;48.234;14.320;2023-04-01T05:45:11;1.53;;;1.43;;
11319;SDS011;5715;48.234;14.320;2023-04-01T05:48:02;4.03;;;1.63;;
11319;SDS011;5715;48.234;14.320;2023-04-01T05:50:50;1.50;;;1.40;;
11319;SDS011;5715;48.234;14.320;2023-04-01T05:53:37;2.17;;;1.70;;
11319;SDS011;5715;48.234;14.320;2023-04-01T05:56:25;9.57;;;2.17;;
11319;SDS011;5715;48.234;14.320;2023-04-01T05:59:12;1.47;;;1.47;;
11319;SDS011;5715;48.234;14.320;2023-04-01T06:02:00;2.10;;;2.00;;
11319;SDS011;5715;48.234;14.320;2023-04-01T06:04:48;1.63;;;1.53;;
11319;SDS011;5715;48.234;14.320;2023-04-01T06:07:36;2.10;;;2.00;;
11319;SDS011;5715;48.234;14.320;2023-04-01T06:10:25;5.13;;;2.17;;
11319;SDS011;5715;48.234;14.320;2023-04-01T06:23:56;1.80;;;1.70;;
11319;SDS011;5715;48.234;14.320;2023-04-01T06:27:33;1.97;;;1.87;;
11319;SDS011;5715;48.234;14.320;2023-04-01T06:30:43;2.03;;;1.83;;
11319;SDS011;5715;48.234;14.320;2023-04-01T06:33:54;1.97;;;1.80;;
11319;SDS011;5715;48.234;14.320;2023-04-01T06:47:28;1.83;;;1.60;;
11319;SDS011;5715;48.234;14.320;2023-04-01T06:53:56;1.13;;;1.13;;
11319;SDS011;5715;48.234;14.320;2023-04-01T06:57:02;1.03;;;1.03;;
11319;SDS011;5715;48.234;14.320;2023-04-01T07:09:37;1.10;;;1.00;;
11319;SDS011;5715;48.234;14.320;2023-04-01T07:15:36;0.83;;;0.83;;
11319;SDS011;5715;48.234;14.320;2023-04-01T07:18:31;2.07;;;0.93;;
11319;SDS011;5715;48.234;14.320;2023-04-01T07:21:37;3.80;;;0.90;;
11319;SDS011;5715;48.234;14.320;2023-04-01T07:24:48;0.70;;;0.70;;
11319;SDS011;5715;48.234;14.320;2023-04-01T07:27:37;1.10;;;1.10;;
11319;SDS011;5715;48.234;14.320;2023-04-01T07:30:24;0.73;;;0.73;;
11319;SDS011;5715;48.234;14.320;2023-04-01T07:33:23;0.60;;;0.60;;
11319;SDS011;5715;48.234;14.320;2023-04-01T07:39:25;0.60;;;0.60;;
11319;SDS011;5715;48.234;14.320;2023-04-01T07:56:03;0.73;;;0.70;;
11319;SDS011;5715;48.234;14.320;2023-04-01T07:59:16;0.50;;;0.50;;
11319;SDS011;5715;48.234;14.320;2023-04-01T08:05:34;2.10;;;0.90;;
11319;SDS011;5715;48.234;14.320;2023-04-01T08:12:31;0.70;;;0.70;;
11319;SDS011;5715;48.234;14.320;2023-04-01T08:16:08;0.60;;;0.60;;
11319;SDS011;5715;48.234;14.320;2023-04-01T08:22:26;0.70;;;0.70;;
11319;SDS011;5715;48.234;14.320;2023-04-01T08:25:27;0.73;;;0.73;;
11319;SDS011;5715;48.234;14.320;2023-04-01T08:31:24;0.50;;;0.50;;
11319;SDS011;5715;48.234;14.320;2023-04-01T08:34:37;0.60;;;0.60;;
11319;SDS011;5715;48.234;14.320;2023-04-01T08:37:31;0.77;;;0.77;;
11319;SDS011;5715;48.234;14.320;2023-04-01T08:47:24;0.90;;;0.90;;
11319;SDS011;5715;48.234;14.320;2023-04-01T08:51:03;0.80;;;0.80;;
11319;SDS011;5715;48.234;14.320;2023-04-01T09:01:09;0.80;;;0.80;;
11319;SDS011;5715;48.234;14.320;2023-04-01T09:04:26;0.90;;;0.90;;
11319;SDS011;5715;48.234;14.320;2023-04-01T09:10:58;0.90;;;0.90;;
11319;SDS011;5715;48.234;14.320;2023-04-01T09:17:40;1.10;;;1.10;;
11319;SDS011;5715;48.234;14.320;2023-04-01T09:20:44;2.13;;;1.40;;
11319;SDS011;5715;48.234;14.320;2023-04-01T09:27:32;0.93;;;0.93;;
11319;SDS011;5715;48.234;14.320;2023-04-01T09:30:48;1.30;;;1.30;;
11319;SDS011;5715;48.234;14.320;2023-04-01T09:40:34;0.90;;;0.90;;
11319;SDS011;5715;48.234;14.320;2023-04-01T09:44:16;3.27;;;1.50;;
11319;SDS011;5715;48.234;14.320;2023-04-01T09:50:50;1.40;;;1.30;;
11319;SDS011;5715;48.234;14.320;2023-04-01T10:00:46;1.10;;;1.10;;
11319;SDS011;5715;48.234;14.320;2023-04-01T10:18:54;1.00;;;1.00;;
11319;SDS011;5715;48.234;14.320;2023-04-01T10:25:23;2.97;;;1.35;;
11319;SDS011;5715;48.234;14.320;2023-04-01T11:11:47;2.27;;;1.53;;
11319;SDS011;5715;48.234;14.320;2023-04-01T11:45:12;0.90;;;0.90;;
11319;SDS011;5715;48.234;14.320;2023-04-01T11:57:43;2.15;;;1.00;;
11319;SDS011;5715;48.234;14.320;2023-04-01T12:10:20;0.70;;;0.70;;
11319;SDS011;5715;48.234;14.320;2023-04-01T12:20:11;0.70;;;0.70;;
11319;SDS011;5715;48.234;14.320;2023-04-01T12:23:44;0.85;;;0.60;;
11319;SDS011;5715;48.234;14.320;2023-04-01T12:46:30;0.77;;;0.77;;
11319;SDS011;5715;48.234;14.320;2023-04-01T12:53:10;0.80;;;0.80;;
11319;SDS011;5715;48.234;14.320;2023-04-01T12:56:19;2.23;;;1.00;;
11319;SDS011;5715;48.234;14.320;2023-04-01T13:00:29;2.20;;;1.00;;
11319;SDS011;5715;48.234;14.320;2023-04-01T13:03:52;1.00;;;1.00;;
11319;SDS011;5715;48.234;14.320;2023-04-01T13:20:36;1.02;;;1.02;;
11319;SDS011;5715;48.234;14.320;2023-04-01T13:27:06;3.00;;;1.60;;
11319;SDS011;5715;48.234;14.320;2023-04-01T14:12:26;1.30;;;1.30;;
11319;SDS011;5715;48.234;14.320;2023-04-01T14:19:24;1.17;;;1.17;;
11319;SDS011;5715;48.234;14.320;2023-04-01T14:22:38;1.55;;;1.45;;
11319;SDS011;5715;48.234;14.320;2023-04-01T14:35:50;1.00;;;1.00;;
11319;SDS011;5715;48.234;14.320;2023-04-01T14:38:53;2.00;;;0.93;;
11319;SDS011;5715;48.234;14.320;2023-04-01T14:51:36;1.10;;;1.10;;
11319;SDS011;5715;48.234;14.320;2023-04-01T14:54:35;1.00;;;1.00;;
11319;SDS011;5715;48.234;14.320;2023-04-01T14:57:29;0.80;;;0.80;;
11319;SDS011;5715;48.234;14.320;2023-04-01T15:00:19;0.70;;;0.70;;
11319;SDS011;5715;48.234;14.320;2023-04-01T15:12:37;1.43;;;0.93;;
11319;SDS011;5715;48.234;14.320;2023-04-01T15:19:28;0.80;;;0.80;;
11319;SDS011;5715;48.234;14.320;2023-04-01T15:32:42;0.80;;;0.80;;
11319;SDS011;5715;48.234;14.320;2023-04-01T15:46:44;0.60;;;0.60;;
11319;SDS011;5715;48.234;14.320;2023-04-01T15:55:43;1.67;;;1.67;;
11319;SDS011;5715;48.234;14.320;2023-04-01T15:58:59;0.80;;;0.80;;
11319;SDS011;5715;48.234;14.320;2023-04-01T16:25:52;0.90;;;0.90;;
11319;SDS011;5715;48.234;14.320;2023-04-01T16:32:34;0.83;;;0.83;;
11319;SDS011;5715;48.234;14.320;2023-04-01T16:35:46;0.60;;;0.60;;
11319;SDS011;5715;48.234;14.320;2023-04-01T17:00:41;0.70;;;0.70;;
11319;SDS011;5715;48.234;14.320;2023-04-01T17:03:40;0.80;;;0.80;;
11319;SDS011;5715;48.234;14.320;2023-04-01T17:13:30;0.70;;;0.70;;
11319;SDS011;5715;48.234;14.320;2023-04-01T17:16:51;0.80;;;0.80;;
11319;SDS011;5715;48.234;14.320;2023-04-01T17:24:11;0.60;;;0.60;;
11319;SDS011;5715;48.234;14.320;2023-04-01T17:33:49;0.80;;;0.80;;
11319;SDS011;5715;48.234;14.320;2023-04-01T17:43:22;1.00;;;1.00;;
11319;SDS011;5715;48.234;14.320;2023-04-01T17:46:47;1.40;;;1.30;;
11319;SDS011;5715;48.234;14.320;2023-04-01T17:53:28;1.07;;;0.97;;
11319;SDS011;5715;48.234;14.320;2023-04-01T18:00:00;0.93;;;0.93;;
11319;SDS011;5715;48.234;14.320;2023-04-01T18:06:58;3.47;;;3.37;;
11319;SDS011;5715;48.234;14.320;2023-04-01T18:10:25;0.60;;;0.60;;
11319;SDS011;5715;48.234;14.320;2023-04-01T18:17:03;0.77;;;0.77;;
11319;SDS011;5715;48.234;14.320;2023-04-01T18:20:54;0.80;;;0.80;;
11319;SDS011;5715;48.234;14.320;2023-04-01T18:26:24;0.80;;;0.80;;
11319;SDS011;5715;48.234;14.320;2023-04-01T18:39:35;0.97;;;0.97;;
11319;SDS011;5715;48.234;14.320;2023-04-01T18:45:51;1.00;;;0.90;;
11319;SDS011;5715;48.234;14.320;2023-04-01T18:55:46;0.70;;;0.70;;
11319;SDS011;5715;48.234;14.320;2023-04-01T19:01:52;0.97;;;0.90;;
11319;SDS011;5715;48.234;14.320;2023-04-01T19:05:12;0.70;;;0.70;;
11319;SDS011;5715;48.234;14.320;2023-04-01T19:08:20;1.00;;;1.00;;
11319;SDS011;5715;48.234;14.320;2023-04-01T19:11:26;0.80;;;0.80;;
11319;SDS011;5715;48.234;14.320;2023-04-01T19:22:31;1.50;;;1.20;;
11319;SDS011;5715;48.234;14.320;2023-04-01T19:28:07;0.93;;;0.90;;
11319;SDS011;5715;48.234;14.320;2023-04-01T19:37:48;0.90;;;0.90;;
11319;SDS011;5715;48.234;14.320;2023-04-01T19:50:15;1.30;;;1.20;;
11319;SDS011;5715;48.234;14.320;2023-04-01T19:53:56;1.23;;;1.13;;
11319;SDS011;5715;48.234;14.320;2023-04-01T20:04:10;1.67;;;1.40;;
11319;SDS011;5715;48.234;14.320;2023-04-01T20:10:17;1.70;;;1.60;;
11319;SDS011;5715;48.234;14.320;2023-04-01T20:13:25;2.30;;;1.40;;
11319;SDS011;5715;48.234;14.320;2023-04-01T20:16:34;1.23;;;1.23;;
11319;SDS011;5715;48.234;14.320;2023-04-01T20:23:21;1.50;;;1.40;;
11319;SDS011;5715;48.234;14.320;2023-04-01T20:26:34;1.40;;;1.30;;
11319;SDS011;5715;48.234;14.320;2023-04-01T20:52:25;1.50;;;1.40;;
11319;SDS011;5715;48.234;14.320;2023-04-01T20:58:48;2.53;;;1.50;;
11319;SDS011;5715;48.234;14.320;2023-04-01T21:18:54;0.93;;;0.93;;
11319;SDS011;5715;48.234;14.320;2023-04-01T21:22:49;1.10;;;1.10;;
11319;SDS011;5715;48.234;14.320;2023-04-01T21:26:24;1.00;;;1.00;;
11319;SDS011;5715;48.234;14.320;2023-04-01T21:53:04;6.43;;;1.40;;
11319;SDS011;5715;48.234;14.320;2023-04-01T21:56:26;1.00;;;1.00;;
11319;SDS011;5715;48.234;14.320;2023-04-01T22:00:00;1.30;;;1.20;;
11319;SDS011;5715;48.234;14.320;2023-04-01T22:03:16;1.17;;;1.17;;
11319;SDS011;5715;48.234;14.320;2023-04-01T22:06:29;2.57;;;1.20;;
11319;SDS011;5715;48.234;14.320;2023-04-01T22:09:33;1.20;;;1.20;;
11319;SDS011;5715;48.234;14.320;2023-04-01T22:12:51;1.00;;;1.00;;
11319;SDS011;5715;48.234;14.320;2023-04-01T22:29:02;1.20;;;1.10;;
11319;SDS011;5715;48.234;14.320;2023-04-01T22:32:21;1.40;;;1.30;;
11319;SDS011;5715;48.234;14.320;2023-04-01T22:45:40;1.10;;;1.10;;
11319;SDS011;5715;48.234;14.320;2023-04-01T22:51:39;1.40;;;1.30;;
11319;SDS011;5715;48.234;14.320;2023-04-01T22:54:43;1.33;;;1.23;;
11319;SDS011;5715;48.234;14.320;2023-04-01T23:01:11;1.43;;;1.10;;
11319;SDS011;5715;48.234;14.320;2023-04-01T23:04:07;1.00;;;1.00;;
11319;SDS011;5715;48.234;14.320;2023-04-01T23:07:04;3.90;;;1.00;;
11319;SDS011;5715;48.234;14.320;2023-04-01T23:10:18;1.10;;;1.10;;
11319;SDS011;5715;48.234;14.320;2023-04-01T23:13:24;0.83;;;0.83;;
11319;SDS011;5715;48.234;14.320;2023-04-01T23:16:47;1.97;;;1.07;;
11319;SDS011;5715;48.234;14.320;2023-04-01T23:19:41;0.90;;;0.90;;
11319;SDS011;5715;48.234;14.320;2023-04-01T23:28:56;1.30;;;1.20;;
11319;SDS011;5715;48.234;14.320;2023-04-01T23:31:48;1.10;;;1.10;;
11319;SDS011;5715;48.234;14.320;2023-04-01T23:34:55;1.67;;;1.57;;
11319;SDS011;5715;48.234;14.320;2023-04-01T23:37:46;1.10;;;1.10;;
11319;SDS011;5715;48.234;14.320;2023-04-01T23:40:34;1.10;;;1.10;;
11319;SDS011;5715;48.234;14.320;2023-04-01T23:43:26;1.17;;;1.17;;
11319;SDS011;5715;48.234;14.320;2023-04-01T23:46:21;1.20;;;1.10;;
11319;SDS011;5715;48.234;14.320;2023-04-01T23:49:17;1.10;;;1.10;;
11319;SDS011;5715;48.234;14.320;2023-04-01T23:52:25;2.63;;;1.30;;
11319;SDS011;5715;48.234;14.320;2023-04-01T23:55:18;1.20;;;1.20;;
11319;SDS011;5715;48.234;14.320;2023-04-01T23:58:18;1.30;;;1.30;;
